Seal Beach, California
Current Conditions -  °F | °C
As of 9:58 AM on Thursday 30 Oct 2014 (Local Time) from KSLI Reporting Station
Scattered Clouds Scattered Clouds  
Wind Chill: 68°   Ceiling: Unl
Heat Index: 68°   Visibility: 10mi
Dew Point: 60°   Wind: 0mph
Humidity: 75%   Direction: NA
Pressure: 30"   Gusts: NA
Location:  33.74°N, 118.1°W
Report Text: KSLI 301658Z 00000KT 10SM SCT250 20/15 A3000 RMK AO2A SLP162 T02000154
Loading
Personal Weather Stations






























Interactive Weather Map New forecast layout! Learn more

10-Day Weather Forecast

Advertisements
Track Severe Weather on mobile